WA0RTO Weather Reports


Display with metric or nautical units.
time (UTC)temp
F
wind
direction
speed
MPH
gust
MPH
rain 1hr
in
rain 24hr
in
rain mn
in
humidity
%
barometer
mb
20210805112048 83 186 1.0 2.0 0.00 0.00 0.00 59 1005.1
20210805112014 83 186 1.0 2.0 0.00 0.00 0.00 59 1005.1
20210805110601 83 185 2.0 5.0 0.00 0.00 0.00 58 1004.8
20210805110514 83 185 2.0 5.0 0.00 0.00 0.00 58 1004.8
20210805105056 82 188 2.0 3.0 0.00 0.00 0.00 60 1004.7
20210805105014 82 188 2.0 3.0 0.00 0.00 0.00 60 1004.7
20210805103512 82 193 1.0 2.0 0.00 0.00 0.00 57 1004.8
20210805102125 82 186 5.0 6.0 0.00 0.00 0.00 55 1004.7
20210805102014 82 186 5.0 6.0 0.00 0.00 0.00 55 1004.7
20210805100514 82 180 2.0 3.0 0.00 0.00 0.00 55 1004.8
20210805095103 80 242 2.0 3.0 0.00 0.00 0.00 58 1004.6
20210805095014 80 242 2.0 3.0 0.00 0.00 0.00 58 1004.6
20210805093550 81 251 0.0 1.0 0.00 0.00 0.00 55 1004.6
20210805093515 81 251 0.0 1.0 0.00 0.00 0.00 55 1004.6
20210805092109 81 81 2.0 3.0 0.00 0.00 0.00 54 1003.9
20210805092014 81 81 2.0 3.0 0.00 0.00 0.00 54 1003.9
20210805090603 81 299 0.0 1.0 0.00 0.00 0.00 53 1003.4
20210805090514 81 299 0.0 1.0 0.00 0.00 0.00 53 1003.4
20210805085046 80 350 0.0 2.0 0.00 0.00 0.00 54 1003.2
20210805085015 80 350 0.0 2.0 0.00 0.00 0.00 54 1003.2
20210805083515 85 98 1.0 6.0 0.00 0.00 0.00 48 1002.8
20210805082016 80 179 2.0 6.0 0.00 0.00 0.00 53 1003.0
20210805080546 82 75 1.0 1.0 0.00 0.00 0.00 47 1002.6
20210805080514 82 75 1.0 1.0 0.00 0.00 0.00 47 1002.6
20210805075015 90 203 5.0 6.0 0.00 0.00 0.00 41 1002.5
20210805073618 92 186 6.0 9.0 0.00 0.00 0.00 40 1002.4
20210805073514 92 186 6.0 9.0 0.00 0.00 0.00 40 1002.4
20210805023554 97 337 0.0 0.0 0.00 0.00 0.00 20 1001.3
20210805023512 97 337 0.0 0.0 0.00 0.00 0.00 20 1001.3
20210805022058 97 342 0.0 1.0 0.00 0.00 0.00 21 1001.2
20210805022013 97 342 0.0 1.0 0.00 0.00 0.00 21 1001.2
20210805020550 98 342 0.0 1.0 0.00 0.00 0.00 21 1001.0
20210805020514 98 342 0.0 1.0 0.00 0.00 0.00 21 1001.0
20210805015050 100 342 0.0 0.0 0.00 0.00 0.00 19 1000.9
20210805015013 100 342 0.0 0.0 0.00 0.00 0.00 19 1000.9
20210805013604 102 333 1.0 2.0 0.00 0.00 0.00 16 1000.7
20210805013515 102 333 1.0 2.0 0.00 0.00 0.00 16 1000.7
20210805012127 104 350 2.0 6.0 0.00 0.00 0.00 15 1000.7
20210805012016 104 350 2.0 6.0 0.00 0.00 0.00 15 1000.7
20210805010546 105 349 2.0 1.0 0.00 0.00 0.00 14 1000.7
20210805010514 105 349 2.0 1.0 0.00 0.00 0.00 14 1000.7
20210805005109 105 330 5.0 9.0 0.00 0.00 0.00 14 1000.7
20210805005016 105 330 5.0 9.0 0.00 0.00 0.00 14 1000.7
20210805003603 106 4 0.0 3.0 0.00 0.00 0.00 15 1000.7
20210805003514 106 4 0.0 3.0 0.00 0.00 0.00 15 1000.7
20210805002104 106 346 3.0 8.0 0.00 0.00 0.00 13 1000.9
20210805002015 106 346 3.0 8.0 0.00 0.00 0.00 13 1000.9
20210805000514 106 338 3.0 6.0 0.00 0.00 0.00 13 1000.8
20210804235054 107 324 2.0 12.0 0.00 0.00 0.00 13 1000.8
20210804235014 107 324 2.0 12.0 0.00 0.00 0.00 13 1000.8
20210804233548 107 346 5.0 5.0 0.00 0.00 0.00 14 1000.8
20210804233515 107 346 5.0 5.0 0.00 0.00 0.00 14 1000.8
20210804232047 107 284 3.0 7.0 0.00 0.00 0.00 16 1000.9
20210804232014 107 284 3.0 7.0 0.00 0.00 0.00 16 1000.9
20210804230514 107 65 0.0 1.0 0.00 0.00 0.00 16 1001.2
20210804225059 107 72 0.0 3.0 0.00 0.00 0.00 16 1001.2
20210804225014 107 72 0.0 3.0 0.00 0.00 0.00 16 1001.2
20210804223513 107 5 2.0 2.0 0.00 0.00 0.00 18 1001.4
20210804222128 107 49 1.0 2.0 0.00 0.00 0.00 17 1001.4
20210804222015 107 49 1.0 2.0 0.00 0.00 0.00 17 1001.4
20210804220546 107 45 1.0 6.0 0.00 0.00 0.00 17 1001.7
20210804220514 107 45 1.0 6.0 0.00 0.00 0.00 17 1001.7
20210804215056 107 39 3.0 7.0 0.00 0.00 0.00 18 1002.0
20210804215015 107 39 3.0 7.0 0.00 0.00 0.00 18 1002.0
20210804213552 107 338 2.0 3.0 0.00 0.00 0.00 16 1002.2
20210804213514 107 338 2.0 3.0 0.00 0.00 0.00 16 1002.2
20210804212015 107 333 2.0 3.0 0.00 0.00 0.00 16 1002.4
20210804210546 106 149 0.0 0.0 0.00 0.00 0.00 18 1002.6
20210804210514 106 149 0.0 0.0 0.00 0.00 0.00 18 1002.6
20210804205104 107 70 1.0 3.0 0.00 0.00 0.00 19 1002.7
20210804205015 107 70 1.0 3.0 0.00 0.00 0.00 19 1002.7
20210804203547 106 339 2.0 5.0 0.00 0.00 0.00 20 1002.9
20210804203514 106 339 2.0 5.0 0.00 0.00 0.00 20 1002.9
20210804202059 104 297 1.0 3.0 0.00 0.00 0.00 22 1003.0
20210804202015 104 297 1.0 3.0 0.00 0.00 0.00 22 1003.0
20210804200514 104 337 5.0 8.0 0.00 0.00 0.00 25 1003.2
20210804195057 104 293 1.0 3.0 0.00 0.00 0.00 25 1003.3
20210804195014 104 293 1.0 3.0 0.00 0.00 0.00 25 1003.3
20210804193617 103 150 1.0 3.0 0.00 0.00 0.00 24 1003.5
20210804193515 103 150 1.0 3.0 0.00 0.00 0.00 24 1003.5
20210804180602 99 290 2.0 3.0 0.00 0.00 0.00 31 1004.5
20210804180514 99 290 2.0 3.0 0.00 0.00 0.00 31 1004.5
20210804175100 99 218 0.0 1.0 0.00 0.00 0.00 30 1004.6
20210804175013 99 218 0.0 1.0 0.00 0.00 0.00 30 1004.6
20210804173607 98 166 2.0 3.0 0.00 0.00 0.00 33 1004.7
20210804173514 98 166 2.0 3.0 0.00 0.00 0.00 33 1004.7
20210804172101 97 140 2.0 3.0 0.00 0.00 0.00 34 1004.7
20210804172015 97 140 2.0 3.0 0.00 0.00 0.00 34 1004.7
20210804170616 96 168 1.0 5.0 0.00 0.00 0.00 39 1004.8
20210804170514 96 168 1.0 5.0 0.00 0.00 0.00 39 1004.8
20210804165051 94 182 2.0 5.0 0.00 0.00 0.00 42 1004.8
20210804165015 94 182 2.0 5.0 0.00 0.00 0.00 42 1004.8
20210804163545 93 150 2.0 5.0 0.00 0.00 0.00 43 1004.8
20210804163514 93 150 2.0 5.0 0.00 0.00 0.00 43 1004.8
20210804162054 92 166 2.0 3.0 0.00 0.00 0.00 44 1004.7
20210804162015 92 166 2.0 3.0 0.00 0.00 0.00 44 1004.7
20210804160602 91 149 3.0 3.0 0.00 0.00 0.00 46 1004.8
20210804160514 91 149 3.0 3.0 0.00 0.00 0.00 46 1004.8
20210804155132 89 149 2.0 3.0 0.00 0.00 0.00 48 1004.9
20210804155053 89 149 2.0 3.0 0.00 0.00 0.00 48 1004.9
20210804155015 89 149 2.0 3.0 0.00 0.00 0.00 48 1004.9
20210804153604 88 153 2.0 5.0 0.00 0.00 0.00 50 1005.0
20210804153513 88 153 2.0 5.0 0.00 0.00 0.00 50 1005.0
20210804152103 86 143 2.0 5.0 0.00 0.00 0.00 52 1005.2
20210804152014 86 143 2.0 5.0 0.00 0.00 0.00 52 1005.2
20210804150514 84 149 1.0 3.0 0.00 0.00 0.00 57 1005.1
20210804145049 83 144 2.0 5.0 0.00 0.00 0.00 60 1005.1
20210804145015 83 144 2.0 5.0 0.00 0.00 0.00 60 1005.1
20210804143547 81 152 1.0 3.0 0.00 0.00 0.00 61 1005.0
20210804143512 81 152 1.0 3.0 0.00 0.00 0.00 61 1005.0
20210804142015 80 149 3.0 6.0 0.00 0.00 0.00 63 1004.9
20210804140514 79 182 1.0 2.0 0.00 0.00 0.00 64 1004.7
20210804135015 77 147 2.0 5.0 0.00 0.00 0.00 66 1004.5
20210804133548 75 176 1.0 3.0 0.00 0.00 0.00 70 1004.5
20210804133513 75 176 1.0 3.0 0.00 0.00 0.00 70 1004.5